sensor_id;sensor_type;location;lat;lon;timestamp;temperature;humidity
47576;DHT22;33304;52.456;13.328;2023-08-06T00:01:14;17.50;61.20
47576;DHT22;33304;52.456;13.328;2023-08-06T00:03:41;17.40;61.20
47576;DHT22;33304;52.456;13.328;2023-08-06T00:06:08;17.40;61.20
47576;DHT22;33304;52.456;13.328;2023-08-06T00:08:35;17.50;61.70
47576;DHT22;33304;52.456;13.328;2023-08-06T00:11:04;17.50;61.80
47576;DHT22;33304;52.456;13.328;2023-08-06T00:13:31;17.50;62.00
47576;DHT22;33304;52.456;13.328;2023-08-06T00:16:08;17.40;61.10
47576;DHT22;33304;52.456;13.328;2023-08-06T00:18:35;17.50;61.20
47576;DHT22;33304;52.456;13.328;2023-08-06T00:21:03;17.50;61.20
47576;DHT22;33304;52.456;13.328;2023-08-06T00:23:30;17.50;61.20
47576;DHT22;33304;52.456;13.328;2023-08-06T00:25:57;17.50;61.20
47576;DHT22;33304;52.456;13.328;2023-08-06T00:28:25;17.60;61.30
47576;DHT22;33304;52.456;13.328;2023-08-06T00:30:53;17.60;61.30
47576;DHT22;33304;52.456;13.328;2023-08-06T00:33:20;17.60;61.30
47576;DHT22;33304;52.456;13.328;2023-08-06T00:35:47;17.60;61.30
47576;DHT22;33304;52.456;13.328;2023-08-06T00:38:15;17.40;61.10
47576;DHT22;33304;52.456;13.328;2023-08-06T00:40:42;17.30;62.40
47576;DHT22;33304;52.456;13.328;2023-08-06T00:43:10;17.40;63.80
47576;DHT22;33304;52.456;13.328;2023-08-06T00:45:38;17.30;63.80
47576;DHT22;33304;52.456;13.328;2023-08-06T00:48:06;17.30;65.90
47576;DHT22;33304;52.456;13.328;2023-08-06T00:50:33;17.30;66.40
47576;DHT22;33304;52.456;13.328;2023-08-06T00:53:01;17.30;66.40
47576;DHT22;33304;52.456;13.328;2023-08-06T00:55:29;17.30;66.90
47576;DHT22;33304;52.456;13.328;2023-08-06T00:57:56;17.20;66.50
47576;DHT22;33304;52.456;13.328;2023-08-06T01:00:25;17.20;67.90
47576;DHT22;33304;52.456;13.328;2023-08-06T01:02:54;17.10;68.70
47576;DHT22;33304;52.456;13.328;2023-08-06T01:05:22;17.20;70.70
47576;DHT22;33304;52.456;13.328;2023-08-06T01:08:02;17.20;70.10
47576;DHT22;33304;52.456;13.328;2023-08-06T01:10:59;17.30;69.50
47576;DHT22;33304;52.456;13.328;2023-08-06T01:13:33;17.30;69.20
47576;DHT22;33304;52.456;13.328;2023-08-06T01:16:05;17.30;68.40
47576;DHT22;33304;52.456;13.328;2023-08-06T01:18:34;17.30;67.60
47576;DHT22;33304;52.456;13.328;2023-08-06T01:21:06;17.20;68.00
47576;DHT22;33304;52.456;13.328;2023-08-06T01:23:33;17.20;67.90
47576;DHT22;33304;52.456;13.328;2023-08-06T01:26:08;17.20;68.70
47576;DHT22;33304;52.456;13.328;2023-08-06T01:28:47;17.20;68.80
47576;DHT22;33304;52.456;13.328;2023-08-06T01:31:20;17.20;70.00
47576;DHT22;33304;52.456;13.328;2023-08-06T01:33:49;17.20;70.10
47576;DHT22;33304;52.456;13.328;2023-08-06T01:36:19;17.20;69.10
47576;DHT22;33304;52.456;13.328;2023-08-06T01:38:46;17.20;69.60
47576;DHT22;33304;52.456;13.328;2023-08-06T01:41:14;17.20;69.80
47576;DHT22;33304;52.456;13.328;2023-08-06T01:43:41;17.20;69.90
47576;DHT22;33304;52.456;13.328;2023-08-06T01:46:08;17.20;71.90
47576;DHT22;33304;52.456;13.328;2023-08-06T01:48:35;17.20;72.10
47576;DHT22;33304;52.456;13.328;2023-08-06T01:51:04;17.20;72.70
47576;DHT22;33304;52.456;13.328;2023-08-06T01:53:32;17.20;73.50
47576;DHT22;33304;52.456;13.328;2023-08-06T01:55:59;17.10;80.10
47576;DHT22;33304;52.456;13.328;2023-08-06T01:58:26;17.00;86.00
47576;DHT22;33304;52.456;13.328;2023-08-06T02:00:53;16.90;90.40
47576;DHT22;33304;52.456;13.328;2023-08-06T02:03:20;17.00;91.40
47576;DHT22;33304;52.456;13.328;2023-08-06T02:05:48;16.90;94.90
47576;DHT22;33304;52.456;13.328;2023-08-06T02:08:15;16.90;96.60
47576;DHT22;33304;52.456;13.328;2023-08-06T02:10:44;16.80;99.90
47576;DHT22;33304;52.456;13.328;2023-08-06T02:13:11;16.80;99.90
47576;DHT22;33304;52.456;13.328;2023-08-06T02:15:42;16.70;99.90
47576;DHT22;33304;52.456;13.328;2023-08-06T02:18:09;16.80;99.90
47576;DHT22;33304;52.456;13.328;2023-08-06T02:20:36;16.80;99.90
47576;DHT22;33304;52.456;13.328;2023-08-06T02:23:03;16.70;99.90
47576;DHT22;33304;52.456;13.328;2023-08-06T02:25:30;16.70;99.90
47576;DHT22;33304;52.456;13.328;2023-08-06T02:28:00;16.70;99.90
47576;DHT22;33304;52.456;13.328;2023-08-06T02:30:28;16.60;99.90
47576;DHT22;33304;52.456;13.328;2023-08-06T02:32:55;16.70;99.90
47576;DHT22;33304;52.456;13.328;2023-08-06T02:35:22;16.70;99.90
47576;DHT22;33304;52.456;13.328;2023-08-06T02:37:49;16.70;99.90
47576;DHT22;33304;52.456;13.328;2023-08-06T02:40:17;16.50;99.90
47576;DHT22;33304;52.456;13.328;2023-08-06T02:42:44;16.60;99.90
47576;DHT22;33304;52.456;13.328;2023-08-06T02:45:12;16.50;99.90
47576;DHT22;33304;52.456;13.328;2023-08-06T02:47:39;16.50;99.90
47576;DHT22;33304;52.456;13.328;2023-08-06T02:50:07;16.60;99.90
47576;DHT22;33304;52.456;13.328;2023-08-06T02:52:34;16.50;99.90
47576;DHT22;33304;52.456;13.328;2023-08-06T02:55:01;16.50;99.90
47576;DHT22;33304;52.456;13.328;2023-08-06T02:57:30;16.60;99.90
47576;DHT22;33304;52.456;13.328;2023-08-06T02:59:57;16.60;99.90
47576;DHT22;33304;52.456;13.328;2023-08-06T03:02:26;16.50;99.90
47576;DHT22;33304;52.456;13.328;2023-08-06T03:05:13;16.50;99.90
47576;DHT22;33304;52.456;13.328;2023-08-06T03:07:44;16.60;99.90
47576;DHT22;33304;52.456;13.328;2023-08-06T03:10:20;16.50;99.90
47576;DHT22;33304;52.456;13.328;2023-08-06T03:12:49;16.50;99.90
47576;DHT22;33304;52.456;13.328;2023-08-06T03:15:17;16.50;99.90
47576;DHT22;33304;52.456;13.328;2023-08-06T03:17:47;16.50;99.90
47576;DHT22;33304;52.456;13.328;2023-08-06T03:20:17;16.50;99.90
47576;DHT22;33304;52.456;13.328;2023-08-06T03:22:45;16.60;99.90
47576;DHT22;33304;52.456;13.328;2023-08-06T03:25:12;16.60;99.90
47576;DHT22;33304;52.456;13.328;2023-08-06T03:27:43;16.60;99.90
47576;DHT22;33304;52.456;13.328;2023-08-06T03:30:11;16.50;99.90
47576;DHT22;33304;52.456;13.328;2023-08-06T03:32:40;16.30;99.90
47576;DHT22;33304;52.456;13.328;2023-08-06T03:35:08;16.20;99.90
47576;DHT22;33304;52.456;13.328;2023-08-06T03:37:36;16.20;99.90
47576;DHT22;33304;52.456;13.328;2023-08-06T03:40:04;16.20;99.90
47576;DHT22;33304;52.456;13.328;2023-08-06T03:42:33;16.20;99.90
47576;DHT22;33304;52.456;13.328;2023-08-06T03:45:01;16.20;99.90
47576;DHT22;33304;52.456;13.328;2023-08-06T03:47:29;16.20;99.90
47576;DHT22;33304;52.456;13.328;2023-08-06T03:49:56;16.20;99.90
47576;DHT22;33304;52.456;13.328;2023-08-06T03:52:24;16.10;99.90
47576;DHT22;33304;52.456;13.328;2023-08-06T03:54:51;16.20;99.90
47576;DHT22;33304;52.456;13.328;2023-08-06T03:57:18;16.20;99.90
47576;DHT22;33304;52.456;13.328;2023-08-06T03:59:46;16.10;99.90
47576;DHT22;33304;52.456;13.328;2023-08-06T04:02:13;16.00;99.90
47576;DHT22;33304;52.456;13.328;2023-08-06T04:04:40;16.00;99.90
47576;DHT22;33304;52.456;13.328;2023-08-06T04:07:07;16.00;99.90
47576;DHT22;33304;52.456;13.328;2023-08-06T04:09:51;15.90;99.90
47576;DHT22;33304;52.456;13.328;2023-08-06T04:12:19;15.90;99.90
47576;DHT22;33304;52.456;13.328;2023-08-06T04:14:46;15.90;99.90
47576;DHT22;33304;52.456;13.328;2023-08-06T04:17:13;15.90;99.90
47576;DHT22;33304;52.456;13.328;2023-08-06T04:19:40;15.80;99.90
47576;DHT22;33304;52.456;13.328;2023-08-06T04:22:07;15.80;99.90
47576;DHT22;33304;52.456;13.328;2023-08-06T04:24:36;15.70;99.90
47576;DHT22;33304;52.456;13.328;2023-08-06T04:27:04;15.70;99.90
47576;DHT22;33304;52.456;13.328;2023-08-06T04:29:31;15.60;99.90
47576;DHT22;33304;52.456;13.328;2023-08-06T04:31:58;15.60;99.90
47576;DHT22;33304;52.456;13.328;2023-08-06T04:34:25;15.60;99.90
47576;DHT22;33304;52.456;13.328;2023-08-06T04:36:53;15.70;99.90
47576;DHT22;33304;52.456;13.328;2023-08-06T04:39:20;15.60;99.90
47576;DHT22;33304;52.456;13.328;2023-08-06T04:41:48;15.70;99.90
47576;DHT22;33304;52.456;13.328;2023-08-06T04:44:15;15.70;99.90
47576;DHT22;33304;52.456;13.328;2023-08-06T04:46:42;15.80;99.90
47576;DHT22;33304;52.456;13.328;2023-08-06T04:49:09;15.90;99.90
47576;DHT22;33304;52.456;13.328;2023-08-06T04:51:37;15.90;99.90
47576;DHT22;33304;52.456;13.328;2023-08-06T04:54:04;15.80;99.90
47576;DHT22;33304;52.456;13.328;2023-08-06T04:56:31;15.80;99.90
47576;DHT22;33304;52.456;13.328;2023-08-06T04:59:00;15.80;99.90
47576;DHT22;33304;52.456;13.328;2023-08-06T05:01:27;15.90;99.90
47576;DHT22;33304;52.456;13.328;2023-08-06T05:03:55;15.90;99.90
47576;DHT22;33304;52.456;13.328;2023-08-06T05:06:22;15.90;99.90
47576;DHT22;33304;52.456;13.328;2023-08-06T05:08:49;15.90;99.90
47576;DHT22;33304;52.456;13.328;2023-08-06T05:11:16;15.90;99.90
47576;DHT22;33304;52.456;13.328;2023-08-06T05:13:43;15.80;99.90
47576;DHT22;33304;52.456;13.328;2023-08-06T05:16:11;15.80;99.90
47576;DHT22;33304;52.456;13.328;2023-08-06T05:18:38;15.90;99.90
47576;DHT22;33304;52.456;13.328;2023-08-06T05:21:06;15.90;99.90
47576;DHT22;33304;52.456;13.328;2023-08-06T05:23:33;15.90;99.90
47576;DHT22;33304;52.456;13.328;2023-08-06T05:26:01;15.90;99.90
47576;DHT22;33304;52.456;13.328;2023-08-06T05:28:28;16.00;99.90
47576;DHT22;33304;52.456;13.328;2023-08-06T05:30:55;16.10;99.90
47576;DHT22;33304;52.456;13.328;2023-08-06T05:33:24;16.10;99.90
47576;DHT22;33304;52.456;13.328;2023-08-06T05:35:51;16.10;99.90
47576;DHT22;33304;52.456;13.328;2023-08-06T05:38:18;16.00;99.90
47576;DHT22;33304;52.456;13.328;2023-08-06T05:40:45;16.10;99.90
47576;DHT22;33304;52.456;13.328;2023-08-06T05:43:13;16.20;99.90
47576;DHT22;33304;52.456;13.328;2023-08-06T05:45:44;16.10;99.90
47576;DHT22;33304;52.456;13.328;2023-08-06T05:48:11;16.10;99.90
47576;DHT22;33304;52.456;13.328;2023-08-06T05:50:39;16.10;99.90
47576;DHT22;33304;52.456;13.328;2023-08-06T05:53:06;16.20;99.90
47576;DHT22;33304;52.456;13.328;2023-08-06T05:55:34;16.20;99.90
47576;DHT22;33304;52.456;13.328;2023-08-06T05:58:01;16.30;99.90
47576;DHT22;33304;52.456;13.328;2023-08-06T06:00:28;16.30;99.90
47576;DHT22;33304;52.456;13.328;2023-08-06T06:02:55;16.30;99.90
47576;DHT22;33304;52.456;13.328;2023-08-06T06:05:22;16.40;99.90
47576;DHT22;33304;52.456;13.328;2023-08-06T06:07:51;16.50;99.90
47576;DHT22;33304;52.456;13.328;2023-08-06T06:10:18;16.50;99.70
47576;DHT22;33304;52.456;13.328;2023-08-06T06:12:45;16.50;99.10
47576;DHT22;33304;52.456;13.328;2023-08-06T06:15:12;16.60;98.90
47576;DHT22;33304;52.456;13.328;2023-08-06T06:17:39;16.60;96.80
47576;DHT22;33304;52.456;13.328;2023-08-06T06:20:07;16.70;96.80
47576;DHT22;33304;52.456;13.328;2023-08-06T06:22:34;16.70;97.40
47576;DHT22;33304;52.456;13.328;2023-08-06T06:25:04;16.90;96.80
47576;DHT22;33304;52.456;13.328;2023-08-06T06:27:31;16.80;96.70
47576;DHT22;33304;52.456;13.328;2023-08-06T06:29:58;16.80;95.80
47576;DHT22;33304;52.456;13.328;2023-08-06T06:32:25;16.90;95.80
47576;DHT22;33304;52.456;13.328;2023-08-06T06:34:52;16.80;95.70
47576;DHT22;33304;52.456;13.328;2023-08-06T06:37:19;16.80;96.70
47576;DHT22;33304;52.456;13.328;2023-08-06T06:39:46;16.80;99.20
47576;DHT22;33304;52.456;13.328;2023-08-06T06:42:14;16.80;99.90
47576;DHT22;33304;52.456;13.328;2023-08-06T06:44:45;16.90;99.90
47576;DHT22;33304;52.456;13.328;2023-08-06T06:47:12;16.90;99.90
47576;DHT22;33304;52.456;13.328;2023-08-06T06:49:39;17.00;94.20
47576;DHT22;33304;52.456;13.328;2023-08-06T06:52:07;17.00;95.00
47576;DHT22;33304;52.456;13.328;2023-08-06T06:54:34;17.00;91.30
47576;DHT22;33304;52.456;13.328;2023-08-06T06:57:01;17.10;91.30
47576;DHT22;33304;52.456;13.328;2023-08-06T06:59:29;17.10;90.00
47576;DHT22;33304;52.456;13.328;2023-08-06T07:01:56;17.10;82.70
47576;DHT22;33304;52.456;13.328;2023-08-06T07:04:23;17.10;83.90
47576;DHT22;33304;52.456;13.328;2023-08-06T07:06:50;17.10;89.40
47576;DHT22;33304;52.456;13.328;2023-08-06T07:09:19;17.00;92.70
47576;DHT22;33304;52.456;13.328;2023-08-06T07:11:46;17.00;94.90
47576;DHT22;33304;52.456;13.328;2023-08-06T07:14:13;17.20;94.00
47576;DHT22;33304;52.456;13.328;2023-08-06T07:16:42;17.40;91.70
47576;DHT22;33304;52.456;13.328;2023-08-06T07:19:09;17.40;82.90
47576;DHT22;33304;52.456;13.328;2023-08-06T07:21:36;17.30;83.50
47576;DHT22;33304;52.456;13.328;2023-08-06T07:24:03;17.30;82.90
47576;DHT22;33304;52.456;13.328;2023-08-06T07:26:30;17.30;86.10
47576;DHT22;33304;52.456;13.328;2023-08-06T07:28:58;17.30;88.90
47576;DHT22;33304;52.456;13.328;2023-08-06T07:31:25;17.30;86.70
47576;DHT22;33304;52.456;13.328;2023-08-06T07:33:53;17.20;87.60
47576;DHT22;33304;52.456;13.328;2023-08-06T07:36:21;17.20;88.90
47576;DHT22;33304;52.456;13.328;2023-08-06T07:38:48;17.00;88.00
47576;DHT22;33304;52.456;13.328;2023-08-06T07:41:21;17.00;91.30
47576;DHT22;33304;52.456;13.328;2023-08-06T07:43:48;17.10;92.00
47576;DHT22;33304;52.456;13.328;2023-08-06T07:46:15;17.20;92.20
47576;DHT22;33304;52.456;13.328;2023-08-06T07:48:42;17.40;91.50
47576;DHT22;33304;52.456;13.328;2023-08-06T07:51:11;17.40;88.20
47576;DHT22;33304;52.456;13.328;2023-08-06T07:53:38;17.40;90.00
47576;DHT22;33304;52.456;13.328;2023-08-06T07:56:05;17.50;90.00
47576;DHT22;33304;52.456;13.328;2023-08-06T07:58:32;17.50;90.40
47576;DHT22;33304;52.456;13.328;2023-08-06T08:00:59;17.30;88.20
47576;DHT22;33304;52.456;13.328;2023-08-06T08:03:26;17.50;89.40
47576;DHT22;33304;52.456;13.328;2023-08-06T08:05:55;17.80;81.60
47576;DHT22;33304;52.456;13.328;2023-08-06T08:08:24;17.80;79.20
47576;DHT22;33304;52.456;13.328;2023-08-06T08:10:51;17.70;80.20
47576;DHT22;33304;52.456;13.328;2023-08-06T08:13:18;17.60;83.20
47576;DHT22;33304;52.456;13.328;2023-08-06T08:15:46;17.80;79.90
47576;DHT22;33304;52.456;13.328;2023-08-06T08:18:13;17.80;81.70
47576;DHT22;33304;52.456;13.328;2023-08-06T08:20:40;17.80;83.30
47576;DHT22;33304;52.456;13.328;2023-08-06T08:23:07;17.70;83.20
47576;DHT22;33304;52.456;13.328;2023-08-06T08:25:35;17.70;82.70
47576;DHT22;33304;52.456;13.328;2023-08-06T08:28:02;17.70;83.20
47576;DHT22;33304;52.456;13.328;2023-08-06T08:30:29;17.60;83.20
47576;DHT22;33304;52.456;13.328;2023-08-06T08:32:56;17.80;83.30
47576;DHT22;33304;52.456;13.328;2023-08-06T08:35:23;17.90;78.70
47576;DHT22;33304;52.456;13.328;2023-08-06T08:37:51;17.80;79.50
47576;DHT22;33304;52.456;13.328;2023-08-06T08:40:18;17.80;77.90
47576;DHT22;33304;52.456;13.328;2023-08-06T08:42:46;17.90;83.40
47576;DHT22;33304;52.456;13.328;2023-08-06T08:45:14;18.10;78.30
47576;DHT22;33304;52.456;13.328;2023-08-06T08:47:42;18.20;70.20
47576;DHT22;33304;52.456;13.328;2023-08-06T08:50:10;18.20;72.00
47576;DHT22;33304;52.456;13.328;2023-08-06T08:52:38;18.40;70.60
47576;DHT22;33304;52.456;13.328;2023-08-06T08:55:08;18.30;71.40
47576;DHT22;33304;52.456;13.328;2023-08-06T08:57:35;18.20;73.00
47576;DHT22;33304;52.456;13.328;2023-08-06T09:00:05;18.40;69.60
47576;DHT22;33304;52.456;13.328;2023-08-06T09:02:33;18.40;73.20
47576;DHT22;33304;52.456;13.328;2023-08-06T09:05:01;18.40;67.40
47576;DHT22;33304;52.456;13.328;2023-08-06T09:07:33;18.40;69.30
47576;DHT22;33304;52.456;13.328;2023-08-06T09:10:03;18.40;65.20
47576;DHT22;33304;52.456;13.328;2023-08-06T09:12:30;18.40;67.30
47576;DHT22;33304;52.456;13.328;2023-08-06T09:14:58;18.40;65.80
47576;DHT22;33304;52.456;13.328;2023-08-06T09:17:27;18.40;65.40
47576;DHT22;33304;52.456;13.328;2023-08-06T09:19:54;18.30;65.00
47576;DHT22;33304;52.456;13.328;2023-08-06T09:22:21;18.20;69.00
47576;DHT22;33304;52.456;13.328;2023-08-06T09:24:48;18.30;70.80
47576;DHT22;33304;52.456;13.328;2023-08-06T09:27:16;18.50;69.30
47576;DHT22;33304;52.456;13.328;2023-08-06T09:29:44;18.40;69.80
47576;DHT22;33304;52.456;13.328;2023-08-06T09:32:12;18.40;70.30
47576;DHT22;33304;52.456;13.328;2023-08-06T09:34:42;18.50;68.80
47576;DHT22;33304;52.456;13.328;2023-08-06T09:37:09;18.50;65.20
47576;DHT22;33304;52.456;13.328;2023-08-06T09:39:39;18.50;65.40
47576;DHT22;33304;52.456;13.328;2023-08-06T09:42:07;18.50;62.20
47576;DHT22;33304;52.456;13.328;2023-08-06T09:44:34;18.50;63.30
47576;DHT22;33304;52.456;13.328;2023-08-06T09:47:04;18.30;64.00
47576;DHT22;33304;52.456;13.328;2023-08-06T09:49:42;18.30;66.10
47576;DHT22;33304;52.456;13.328;2023-08-06T09:52:12;18.60;62.30
47576;DHT22;33304;52.456;13.328;2023-08-06T09:54:40;18.60;59.70
47576;DHT22;33304;52.456;13.328;2023-08-06T09:57:08;18.60;62.20
47576;DHT22;33304;52.456;13.328;2023-08-06T09:59:35;18.70;59.70
47576;DHT22;33304;52.456;13.328;2023-08-06T10:02:07;18.60;62.30
47576;DHT22;33304;52.456;13.328;2023-08-06T10:04:37;18.60;60.00
47576;DHT22;33304;52.456;13.328;2023-08-06T10:07:05;18.60;62.30
47576;DHT22;33304;52.456;13.328;2023-08-06T10:09:33;18.60;62.30
47576;DHT22;33304;52.456;13.328;2023-08-06T10:12:00;18.50;62.20
47576;DHT22;33304;52.456;13.328;2023-08-06T10:14:29;18.60;62.30
47576;DHT22;33304;52.456;13.328;2023-08-06T10:16:58;18.60;62.30
47576;DHT22;33304;52.456;13.328;2023-08-06T10:19:27;18.60;62.30
47576;DHT22;33304;52.456;13.328;2023-08-06T10:22:12;18.50;62.20
47576;DHT22;33304;52.456;13.328;2023-08-06T10:24:47;18.60;65.90
47576;DHT22;33304;52.456;13.328;2023-08-06T10:27:19;18.50;63.20
47576;DHT22;33304;52.456;13.328;2023-08-06T10:29:47;18.40;62.60
47576;DHT22;33304;52.456;13.328;2023-08-06T10:32:14;18.50;65.20
47576;DHT22;33304;52.456;13.328;2023-08-06T10:34:54;18.50;62.90
47576;DHT22;33304;52.456;13.328;2023-08-06T10:37:24;18.50;63.70
47576;DHT22;33304;52.456;13.328;2023-08-06T10:39:52;18.30;65.00
47576;DHT22;33304;52.456;13.328;2023-08-06T10:42:20;18.50;67.80
47576;DHT22;33304;52.456;13.328;2023-08-06T10:45:11;18.60;67.40
47576;DHT22;33304;52.456;13.328;2023-08-06T10:47:39;18.50;66.10
47576;DHT22;33304;52.456;13.328;2023-08-06T10:50:07;18.50;65.40
47576;DHT22;33304;52.456;13.328;2023-08-06T10:52:36;18.40;65.20
47576;DHT22;33304;52.456;13.328;2023-08-06T10:55:04;18.30;65.90
47576;DHT22;33304;52.456;13.328;2023-08-06T10:57:31;18.20;69.50
47576;DHT22;33304;52.456;13.328;2023-08-06T10:59:58;18.00;69.90
47576;DHT22;33304;52.456;13.328;2023-08-06T11:02:25;18.00;74.80
47576;DHT22;33304;52.456;13.328;2023-08-06T11:04:52;18.10;78.30
47576;DHT22;33304;52.456;13.328;2023-08-06T11:07:19;18.10;77.60
47576;DHT22;33304;52.456;13.328;2023-08-06T11:09:51;17.90;78.30
47576;DHT22;33304;52.456;13.328;2023-08-06T11:12:19;17.90;83.40
47576;DHT22;33304;52.456;13.328;2023-08-06T11:14:50;17.90;84.90
47576;DHT22;33304;52.456;13.328;2023-08-06T11:17:17;17.90;91.00
47576;DHT22;33304;52.456;13.328;2023-08-06T11:19:44;17.90;96.20
47576;DHT22;33304;52.456;13.328;2023-08-06T11:22:12;17.90;99.90
47576;DHT22;33304;52.456;13.328;2023-08-06T11:24:39;17.80;99.90
47576;DHT22;33304;52.456;13.328;2023-08-06T11:27:12;17.70;99.90
47576;DHT22;33304;52.456;13.328;2023-08-06T11:29:40;17.70;99.90
47576;DHT22;33304;52.456;13.328;2023-08-06T11:32:08;17.50;99.90
47576;DHT22;33304;52.456;13.328;2023-08-06T11:34:35;17.70;99.90
47576;DHT22;33304;52.456;13.328;2023-08-06T11:37:03;17.60;99.90
47576;DHT22;33304;52.456;13.328;2023-08-06T11:39:31;17.60;99.90
47576;DHT22;33304;52.456;13.328;2023-08-06T11:41:59;17.70;99.90
47576;DHT22;33304;52.456;13.328;2023-08-06T11:44:32;17.70;99.90
47576;DHT22;33304;52.456;13.328;2023-08-06T11:47:00;17.60;99.90
47576;DHT22;33304;52.456;13.328;2023-08-06T11:49:38;17.60;99.90
47576;DHT22;33304;52.456;13.328;2023-08-06T11:52:12;17.60;99.90
47576;DHT22;33304;52.456;13.328;2023-08-06T11:54:40;17.60;99.90
47576;DHT22;33304;52.456;13.328;2023-08-06T11:57:08;17.60;99.90
47576;DHT22;33304;52.456;13.328;2023-08-06T11:59:37;17.50;99.90
47576;DHT22;33304;52.456;13.328;2023-08-06T12:02:05;17.40;99.90
47576;DHT22;33304;52.456;13.328;2023-08-06T12:04:35;17.30;99.90
47576;DHT22;33304;52.456;13.328;2023-08-06T12:07:17;17.30;99.90
47576;DHT22;33304;52.456;13.328;2023-08-06T12:09:44;17.30;99.90
47576;DHT22;33304;52.456;13.328;2023-08-06T12:12:11;17.30;99.90
47576;DHT22;33304;52.456;13.328;2023-08-06T12:14:40;17.30;99.90
47576;DHT22;33304;52.456;13.328;2023-08-06T12:17:07;17.20;99.90
47576;DHT22;33304;52.456;13.328;2023-08-06T12:19:34;17.20;99.90
47576;DHT22;33304;52.456;13.328;2023-08-06T12:22:02;17.30;99.90
47576;DHT22;33304;52.456;13.328;2023-08-06T12:24:29;17.30;99.90
47576;DHT22;33304;52.456;13.328;2023-08-06T12:26:57;17.20;99.90
47576;DHT22;33304;52.456;13.328;2023-08-06T12:29:25;17.00;99.90
47576;DHT22;33304;52.456;13.328;2023-08-06T12:31:53;17.00;99.90
47576;DHT22;33304;52.456;13.328;2023-08-06T12:34:20;16.80;99.90
47576;DHT22;33304;52.456;13.328;2023-08-06T12:36:48;16.80;99.90
47576;DHT22;33304;52.456;13.328;2023-08-06T12:39:15;16.70;99.90
47576;DHT22;33304;52.456;13.328;2023-08-06T12:41:42;16.70;99.90
47576;DHT22;33304;52.456;13.328;2023-08-06T12:44:11;16.70;99.90
47576;DHT22;33304;52.456;13.328;2023-08-06T12:46:38;16.70;99.90
47576;DHT22;33304;52.456;13.328;2023-08-06T12:49:07;16.70;99.90
47576;DHT22;33304;52.456;13.328;2023-08-06T12:51:34;16.80;99.90
47576;DHT22;33304;52.456;13.328;2023-08-06T12:54:01;16.80;99.90
47576;DHT22;33304;52.456;13.328;2023-08-06T12:56:28;16.80;99.90
47576;DHT22;33304;52.456;13.328;2023-08-06T12:58:55;16.90;99.90
47576;DHT22;33304;52.456;13.328;2023-08-06T13:01:22;16.90;99.90
47576;DHT22;33304;52.456;13.328;2023-08-06T13:03:49;16.90;99.90
47576;DHT22;33304;52.456;13.328;2023-08-06T13:06:18;16.80;99.90
47576;DHT22;33304;52.456;13.328;2023-08-06T13:08:45;16.70;99.90
47576;DHT22;33304;52.456;13.328;2023-08-06T13:11:12;16.60;99.90
47576;DHT22;33304;52.456;13.328;2023-08-06T13:13:39;16.50;99.90
47576;DHT22;33304;52.456;13.328;2023-08-06T13:16:06;16.40;99.90
47576;DHT22;33304;52.456;13.328;2023-08-06T13:18:33;16.30;99.90
47576;DHT22;33304;52.456;13.328;2023-08-06T13:21:00;16.30;99.90
47576;DHT22;33304;52.456;13.328;2023-08-06T13:23:28;16.20;99.90
47576;DHT22;33304;52.456;13.328;2023-08-06T13:25:55;16.30;99.90
47576;DHT22;33304;52.456;13.328;2023-08-06T13:28:22;16.30;99.90
47576;DHT22;33304;52.456;13.328;2023-08-06T13:30:49;16.40;99.90
47576;DHT22;33304;52.456;13.328;2023-08-06T13:33:17;16.30;99.90
47576;DHT22;33304;52.456;13.328;2023-08-06T13:35:44;16.30;99.90
47576;DHT22;33304;52.456;13.328;2023-08-06T13:38:11;16.40;99.90
47576;DHT22;33304;52.456;13.328;2023-08-06T13:40:39;16.40;99.90
47576;DHT22;33304;52.456;13.328;2023-08-06T13:43:06;16.50;99.90
47576;DHT22;33304;52.456;13.328;2023-08-06T13:45:33;16.50;99.90
47576;DHT22;33304;52.456;13.328;2023-08-06T13:48:01;16.50;99.90
47576;DHT22;33304;52.456;13.328;2023-08-06T13:50:29;16.70;99.90
47576;DHT22;33304;52.456;13.328;2023-08-06T13:52:56;16.70;99.90
47576;DHT22;33304;52.456;13.328;2023-08-06T13:55:23;16.70;99.90
47576;DHT22;33304;52.456;13.328;2023-08-06T13:57:52;16.80;99.90
47576;DHT22;33304;52.456;13.328;2023-08-06T14:00:19;16.80;99.90
47576;DHT22;33304;52.456;13.328;2023-08-06T14:02:46;16.90;99.90
47576;DHT22;33304;52.456;13.328;2023-08-06T14:05:13;17.00;99.90
47576;DHT22;33304;52.456;13.328;2023-08-06T14:07:40;17.10;99.90
47576;DHT22;33304;52.456;13.328;2023-08-06T14:10:08;17.10;99.90
47576;DHT22;33304;52.456;13.328;2023-08-06T14:12:35;17.10;99.90
47576;DHT22;33304;52.456;13.328;2023-08-06T14:15:05;17.20;99.90
47576;DHT22;33304;52.456;13.328;2023-08-06T14:17:32;17.10;99.90
47576;DHT22;33304;52.456;13.328;2023-08-06T14:19:59;17.20;99.90
47576;DHT22;33304;52.456;13.328;2023-08-06T14:22:26;17.20;99.90
47576;DHT22;33304;52.456;13.328;2023-08-06T14:24:53;17.20;99.90
47576;DHT22;33304;52.456;13.328;2023-08-06T14:27:20;17.20;99.90
47576;DHT22;33304;52.456;13.328;2023-08-06T14:29:47;17.30;99.90
47576;DHT22;33304;52.456;13.328;2023-08-06T14:32:16;17.30;99.90
47576;DHT22;33304;52.456;13.328;2023-08-06T14:34:43;17.40;99.90
47576;DHT22;33304;52.456;13.328;2023-08-06T14:37:11;17.40;99.90
47576;DHT22;33304;52.456;13.328;2023-08-06T14:39:38;17.40;99.90
47576;DHT22;33304;52.456;13.328;2023-08-06T14:42:05;17.40;99.90
47576;DHT22;33304;52.456;13.328;2023-08-06T14:44:32;17.40;99.90
47576;DHT22;33304;52.456;13.328;2023-08-06T14:46:59;17.40;99.90
47576;DHT22;33304;52.456;13.328;2023-08-06T14:49:28;17.40;99.90
47576;DHT22;33304;52.456;13.328;2023-08-06T14:51:55;17.40;99.90
47576;DHT22;33304;52.456;13.328;2023-08-06T14:54:25;17.40;99.90
47576;DHT22;33304;52.456;13.328;2023-08-06T14:56:52;17.40;99.90
47576;DHT22;33304;52.456;13.328;2023-08-06T14:59:19;17.40;99.90
47576;DHT22;33304;52.456;13.328;2023-08-06T15:01:46;17.40;99.90
47576;DHT22;33304;52.456;13.328;2023-08-06T15:04:13;17.30;99.90
47576;DHT22;33304;52.456;13.328;2023-08-06T15:06:42;17.30;99.90
47576;DHT22;33304;52.456;13.328;2023-08-06T15:09:09;17.30;99.90
47576;DHT22;33304;52.456;13.328;2023-08-06T15:11:36;17.30;99.90
47576;DHT22;33304;52.456;13.328;2023-08-06T15:14:03;17.30;99.90
47576;DHT22;33304;52.456;13.328;2023-08-06T15:16:33;17.40;99.90
47576;DHT22;33304;52.456;13.328;2023-08-06T15:19:00;17.30;99.90
47576;DHT22;33304;52.456;13.328;2023-08-06T15:21:27;17.30;99.90